Time;durP1;ratioP1;P1;durP2;ratioP2;P2;SDS_P1;SDS_P2;PMS_P1;PMS_P2;Temp;Humidity;BMP_temperature;BMP_pressure;BME280_temperature;BME280_humidity;BME280_pressure;Samples;Min_cycle;Max_cycle;Signal;HPM_P1;HPM_P2
2021/05/04 00:01:11;;;;;;;14.05;6.03;;;;;;;;;;5067579;28;20035;-66
2021/05/04 00:03:37;;;;;;;13.85;6.68;;;;;;;;;;5061534;28;20028;-66
2021/05/04 00:06:03;;;;;;;8.27;4.55;;;;;;;;;;5070566;28;20387;-65
2021/05/04 00:08:30;;;;;;;9.57;3.60;;;;;;;;;;5054673;28;20043;-69
2021/05/04 00:10:56;;;;;;;8.98;4.90;;;;;;;;;;5062671;28;20490;-67
2021/05/04 00:13:22;;;;;;;9.73;4.40;;;;;;;;;;5067018;28;20125;-67
2021/05/04 00:15:48;;;;;;;15.35;4.45;;;;;;;;;;5063011;28;20028;-66
2021/05/04 00:18:14;;;;;;;7.90;3.92;;;;;;;;;;5054908;28;20075;-64
2021/05/04 00:20:40;;;;;;;11.60;4.80;;;;;;;;;;5060507;28;20071;-64
2021/05/04 00:23:06;;;;;;;7.53;3.70;;;;;;;;;;5060042;28;20021;-65
2021/05/04 00:25:33;;;;;;;8.18;3.80;;;;;;;;;;5055756;28;20029;-65
2021/05/04 00:27:59;;;;;;;10.95;3.28;;;;;;;;;;5059116;28;20123;-64
2021/05/04 00:30:25;;;;;;;13.15;4.07;;;;;;;;;;5066187;28;20074;-66
2021/05/04 00:32:51;;;;;;;8.43;4.18;;;;;;;;;;5066683;28;20554;-67
2021/05/04 00:35:17;;;;;;;7.70;3.42;;;;;;;;;;5057385;28;20060;-65
2021/05/04 00:37:43;;;;;;;4.88;2.15;;;;;;;;;;5060621;28;20029;-67
2021/05/04 00:40:10;;;;;;;5.90;2.78;;;;;;;;;;5055372;28;20079;-67
2021/05/04 00:42:36;;;;;;;12.43;3.65;;;;;;;;;;5059231;28;20647;-65
2021/05/04 00:45:02;;;;;;;5.32;2.53;;;;;;;;;;5056014;28;20031;-68
2021/05/04 00:47:28;;;;;;;10.70;3.65;;;;;;;;;;5060221;28;20040;-70
2021/05/04 00:49:54;;;;;;;9.75;3.08;;;;;;;;;;5053449;28;20040;-68
2021/05/04 00:52:20;;;;;;;6.30;2.58;;;;;;;;;;5058895;28;20029;-68
2021/05/04 00:54:47;;;;;;;7.38;2.63;;;;;;;;;;5064448;28;20029;-70
2021/05/04 00:57:14;;;;;;;8.70;2.97;;;;;;;;;;5052004;28;20032;-70
2021/05/04 00:59:41;;;;;;;9.25;3.45;;;;;;;;;;5075539;28;20028;-63
2021/05/04 01:02:07;;;;;;;5.93;2.55;;;;;;;;;;5065575;28;20567;-68
2021/05/04 01:04:33;;;;;;;6.72;2.55;;;;;;;;;;5056207;28;20029;-70
2021/05/04 01:07:00;;;;;;;9.43;2.97;;;;;;;;;;5054425;28;20049;-68
2021/05/04 01:09:26;;;;;;;9.82;3.83;;;;;;;;;;5060398;28;20032;-69
2021/05/04 01:11:52;;;;;;;7.28;3.13;;;;;;;;;;5061537;28;20102;-69
2021/05/04 01:14:20;;;;;;;11.35;3.90;;;;;;;;;;5059156;28;20035;-67
2021/05/04 01:16:50;;;;;;;12.82;4.50;;;;;;;;;;5060649;28;20071;-64
2021/05/04 01:19:17;;;;;;;10.38;4.50;;;;;;;;;;5061079;28;20016;-71
2021/05/04 01:21:43;;;;;;;8.00;3.05;;;;;;;;;;5060282;28;20503;-67
2021/05/04 01:24:10;;;;;;;7.22;3.35;;;;;;;;;;5059523;28;20100;-67
2021/05/04 01:26:36;;;;;;;6.30;2.55;;;;;;;;;;5066797;28;20016;-68
2021/05/04 01:29:02;;;;;;;7.25;3.53;;;;;;;;;;5065940;28;20016;-63
2021/05/04 01:31:29;;;;;;;8.13;3.55;;;;;;;;;;5067607;28;20024;-63
2021/05/04 01:33:55;;;;;;;6.85;2.78;;;;;;;;;;5058732;28;20070;-66
2021/05/04 01:36:21;;;;;;;11.32;3.28;;;;;;;;;;5064277;28;20021;-70
2021/05/04 01:38:47;;;;;;;8.60;3.67;;;;;;;;;;5050691;28;20153;-75
2021/05/04 01:41:13;;;;;;;6.70;2.60;;;;;;;;;;5064588;28;20021;-69
2021/05/04 01:43:39;;;;;;;8.20;2.83;;;;;;;;;;5050780;28;20604;-62
2021/05/04 01:46:05;;;;;;;8.77;3.85;;;;;;;;;;5053689;28;20013;-73
2021/05/04 01:48:31;;;;;;;9.75;3.90;;;;;;;;;;5052454;28;20025;-73
2021/05/04 01:50:57;;;;;;;8.73;3.22;;;;;;;;;;5063093;28;20483;-74
2021/05/04 01:53:23;;;;;;;12.25;4.35;;;;;;;;;;5069907;28;20111;-71
2021/05/04 01:55:49;;;;;;;14.63;5.13;;;;;;;;;;5070513;28;20028;-71
2021/05/04 01:58:17;;;;;;;5.35;2.72;;;;;;;;;;5058962;28;20048;-66
2021/05/04 02:00:43;;;;;;;9.98;4.45;;;;;;;;;;5060359;28;20189;-65
2021/05/04 02:03:09;;;;;;;8.75;4.07;;;;;;;;;;5056696;28;20040;-70
2021/05/04 02:05:35;;;;;;;10.10;4.13;;;;;;;;;;5061698;28;20032;-68
2021/05/04 02:08:01;;;;;;;11.75;3.85;;;;;;;;;;5058811;28;20057;-69
2021/05/04 02:10:27;;;;;;;11.50;5.07;;;;;;;;;;5055504;28;20051;-68
2021/05/04 02:12:53;;;;;;;14.82;3.88;;;;;;;;;;5067249;28;20082;-72
2021/05/04 02:15:19;;;;;;;8.88;4.45;;;;;;;;;;5060171;28;20086;-71
2021/05/04 02:17:45;;;;;;;10.32;4.35;;;;;;;;;;5066532;28;20029;-68
2021/05/04 02:20:12;;;;;;;12.07;4.45;;;;;;;;;;5061587;28;20509;-65
2021/05/04 02:22:38;;;;;;;19.67;3.53;;;;;;;;;;5059078;28;20066;-70
2021/05/04 02:25:05;;;;;;;13.45;3.95;;;;;;;;;;5063057;28;20027;-71
2021/05/04 02:27:31;;;;;;;10.20;3.10;;;;;;;;;;5064123;28;20259;-66
2021/05/04 02:29:57;;;;;;;19.90;4.22;;;;;;;;;;5060523;28;20493;-67
2021/05/04 02:32:23;;;;;;;12.80;4.13;;;;;;;;;;5058266;28;20035;-68
2021/05/04 02:34:49;;;;;;;14.35;4.05;;;;;;;;;;5061350;28;20016;-67
2021/05/04 02:37:15;;;;;;;9.13;3.47;;;;;;;;;;5062572;28;20032;-66
2021/05/04 02:39:41;;;;;;;13.18;3.28;;;;;;;;;;5059440;28;20070;-67
2021/05/04 02:42:07;;;;;;;7.18;3.58;;;;;;;;;;5070633;28;20125;-68
2021/05/04 02:44:33;;;;;;;13.75;4.68;;;;;;;;;;5073937;28;20483;-62
2021/05/04 02:46:59;;;;;;;14.05;4.10;;;;;;;;;;5057710;28;20033;-66
2021/05/04 02:49:25;;;;;;;12.50;5.13;;;;;;;;;;5052419;28;20061;-68
2021/05/04 02:51:51;;;;;;;11.75;5.10;;;;;;;;;;5070989;28;20036;-67
2021/05/04 02:54:17;;;;;;;17.85;5.32;;;;;;;;;;5072367;28;20119;-67
2021/05/04 02:56:43;;;;;;;15.70;4.18;;;;;;;;;;5071620;28;20043;-68
2021/05/04 02:59:10;;;;;;;13.45;5.28;;;;;;;;;;5058777;28;20044;-67
2021/05/04 03:01:36;;;;;;;18.88;6.05;;;;;;;;;;5059396;28;20025;-68
2021/05/04 03:04:02;;;;;;;25.83;5.90;;;;;;;;;;5057747;28;20029;-69
2021/05/04 03:06:28;;;;;;;12.13;5.35;;;;;;;;;;5062641;28;20118;-70
2021/05/04 03:08:54;;;;;;;17.92;5.65;;;;;;;;;;5066261;28;20094;-67
2021/05/04 03:11:20;;;;;;;14.95;5.70;;;;;;;;;;5072670;28;20024;-67
2021/05/04 03:13:46;;;;;;;34.95;6.72;;;;;;;;;;5070413;28;20448;-68
2021/05/04 03:16:12;;;;;;;28.10;7.00;;;;;;;;;;5067555;28;20116;-68
2021/05/04 03:18:38;;;;;;;26.92;5.90;;;;;;;;;;5061900;28;20076;-67
2021/05/04 03:21:05;;;;;;;22.33;5.65;;;;;;;;;;5066121;28;20024;-69
2021/05/04 03:23:31;;;;;;;38.05;6.50;;;;;;;;;;5059296;28;20037;-68
2021/05/04 03:25:57;;;;;;;34.13;6.97;;;;;;;;;;5061471;28;20129;-69
2021/05/04 03:28:23;;;;;;;39.00;6.13;;;;;;;;;;5059466;28;20798;-67
2021/05/04 03:30:49;;;;;;;22.02;6.30;;;;;;;;;;5057635;28;20068;-68
2021/05/04 03:33:15;;;;;;;35.20;8.05;;;;;;;;;;5061220;28;20020;-68
2021/05/04 03:35:41;;;;;;;18.85;4.95;;;;;;;;;;5059299;28;20028;-68
2021/05/04 03:38:08;;;;;;;17.70;4.15;;;;;;;;;;5063790;28;20075;-67
2021/05/04 03:40:34;;;;;;;38.90;6.70;;;;;;;;;;5062811;28;20028;-68
2021/05/04 03:43:00;;;;;;;31.30;6.20;;;;;;;;;;5059818;28;20111;-68
2021/05/04 03:45:27;;;;;;;28.48;6.93;;;;;;;;;;5061605;28;20074;-67
2021/05/04 03:47:53;;;;;;;45.60;8.68;;;;;;;;;;5063702;28;20013;-67
2021/05/04 03:50:23;;;;;;;39.13;7.88;;;;;;;;;;5055181;28;20033;-67
2021/05/04 03:52:50;;;;;;;45.55;6.88;;;;;;;;;;5056693;28;20052;-68
2021/05/04 03:55:16;;;;;;;47.03;9.02;;;;;;;;;;5065830;28;20021;-68
2021/05/04 03:57:42;;;;;;;51.90;10.88;;;;;;;;;;5056562;28;20025;-66
2021/05/04 04:00:09;;;;;;;46.17;9.70;;;;;;;;;;5069675;28;20051;-66
2021/05/04 04:02:35;;;;;;;53.72;9.70;;;;;;;;;;5067782;28;20009;-65
2021/05/04 04:05:02;;;;;;;55.45;9.73;;;;;;;;;;5064348;28;20028;-66
2021/05/04 04:07:28;;;;;;;47.33;9.25;;;;;;;;;;5065508;28;20622;-64
2021/05/04 04:09:54;;;;;;;55.13;8.80;;;;;;;;;;5063251;28;20025;-69
2021/05/04 04:12:20;;;;;;;43.40;8.35;;;;;;;;;;5061815;28;20028;-65
2021/05/04 04:14:46;;;;;;;42.92;7.43;;;;;;;;;;5069589;28;20036;-65
2021/05/04 04:17:12;;;;;;;59.58;10.60;;;;;;;;;;5058287;28;20037;-65
2021/05/04 04:19:38;;;;;;;63.35;11.05;;;;;;;;;;5057051;28;20031;-65
2021/05/04 04:22:04;;;;;;;61.80;10.95;;;;;;;;;;5069453;28;20033;-65
2021/05/04 04:24:31;;;;;;;55.25;9.88;;;;;;;;;;5063903;28;20114;-65
2021/05/04 04:26:57;;;;;;;44.65;9.23;;;;;;;;;;5062874;28;20016;-66
2021/05/04 04:29:23;;;;;;;47.13;8.80;;;;;;;;;;5058200;28;20029;-67
2021/05/04 04:31:49;;;;;;;54.33;10.45;;;;;;;;;;5065841;28;20078;-65
2021/05/04 04:34:15;;;;;;;39.45;7.97;;;;;;;;;;5061758;28;20029;-67
2021/05/04 04:36:41;;;;;;;31.10;6.63;;;;;;;;;;5060266;28;20028;-65
2021/05/04 04:39:07;;;;;;;32.20;6.15;;;;;;;;;;5062732;28;20237;-66
2021/05/04 04:41:35;;;;;;;33.85;5.80;;;;;;;;;;5067313;28;20025;-67
2021/05/04 04:44:01;;;;;;;32.17;5.85;;;;;;;;;;5054529;28;20060;-70
2021/05/04 04:46:39;;;;;;;25.70;8.18;;;;;;;;;;5056495;28;20103;-69
2021/05/04 04:49:05;;;;;;;34.55;6.25;;;;;;;;;;5053927;28;20020;-67
2021/05/04 04:51:32;;;;;;;38.70;5.13;;;;;;;;;;5071345;28;20130;-69
2021/05/04 04:53:58;;;;;;;44.90;8.80;;;;;;;;;;5067255;28;20335;-70
2021/05/04 04:56:24;;;;;;;30.52;5.85;;;;;;;;;;5055559;28;20519;-70
2021/05/04 04:58:50;;;;;;;33.95;6.10;;;;;;;;;;5055291;28;20316;-67
2021/05/04 05:01:16;;;;;;;30.83;4.18;;;;;;;;;;5053246;28;20025;-69
2021/05/04 05:03:42;;;;;;;33.50;5.60;;;;;;;;;;5054475;28;20029;-71
2021/05/04 05:06:08;;;;;;;32.88;7.63;;;;;;;;;;5067329;28;20020;-69
2021/05/04 05:08:34;;;;;;;42.03;7.60;;;;;;;;;;5069771;28;20033;-75
2021/05/04 05:11:00;;;;;;;50.53;9.82;;;;;;;;;;5068426;28;20032;-73
2021/05/04 05:13:26;;;;;;;44.55;8.13;;;;;;;;;;5065768;28;20035;-67
2021/05/04 05:15:52;;;;;;;35.55;7.03;;;;;;;;;;5064995;28;20098;-69
2021/05/04 05:18:18;;;;;;;36.70;6.85;;;;;;;;;;5056883;28;20037;-68
2021/05/04 05:20:44;;;;;;;39.08;7.55;;;;;;;;;;5054850;28;20029;-68
2021/05/04 05:23:10;;;;;;;36.33;7.97;;;;;;;;;;5056888;28;20082;-68
2021/05/04 05:25:36;;;;;;;41.05;10.23;;;;;;;;;;5056468;28;20039;-68
2021/05/04 05:28:03;;;;;;;53.20;8.98;;;;;;;;;;5063899;28;20040;-69
2021/05/04 05:30:29;;;;;;;42.45;7.38;;;;;;;;;;5053588;28;20688;-68
2021/05/04 05:32:55;;;;;;;50.03;7.93;;;;;;;;;;5056312;28;20055;-67
2021/05/04 05:35:21;;;;;;;36.78;6.88;;;;;;;;;;5060329;28;20641;-68
2021/05/04 05:37:47;;;;;;;41.72;7.88;;;;;;;;;;5056272;28;20043;-69
2021/05/04 05:40:13;;;;;;;48.72;8.02;;;;;;;;;;5055068;28;20048;-68
2021/05/04 05:42:39;;;;;;;50.47;7.25;;;;;;;;;;5057250;28;20029;-67
2021/05/04 05:45:06;;;;;;;35.92;6.07;;;;;;;;;;5055839;28;20047;-66
2021/05/04 05:47:32;;;;;;;32.38;5.80;;;;;;;;;;5060413;28;20575;-67
2021/05/04 05:49:58;;;;;;;45.50;7.95;;;;;;;;;;5059703;28;20517;-67
2021/05/04 05:52:24;;;;;;;34.05;6.43;;;;;;;;;;5061811;28;20029;-75
2021/05/04 05:54:50;;;;;;;41.35;8.40;;;;;;;;;;5052594;28;20040;-72
2021/05/04 05:57:16;;;;;;;49.03;7.63;;;;;;;;;;5061417;28;20086;-69
2021/05/04 05:59:42;;;;;;;39.53;7.32;;;;;;;;;;5059458;28;20036;-68
2021/05/04 06:02:08;;;;;;;49.78;8.77;;;;;;;;;;5065211;28;20025;-68
2021/05/04 06:04:34;;;;;;;43.20;7.15;;;;;;;;;;5066389;28;20028;-71
2021/05/04 06:07:00;;;;;;;49.67;7.47;;;;;;;;;;5059151;28;20037;-70
2021/05/04 06:09:26;;;;;;;42.88;7.32;;;;;;;;;;5050230;28;20392;-68
2021/05/04 06:11:52;;;;;;;48.42;8.52;;;;;;;;;;5063408;28;20525;-69
2021/05/04 06:14:18;;;;;;;36.72;5.53;;;;;;;;;;5063844;28;20033;-69
2021/05/04 06:16:45;;;;;;;38.85;8.00;;;;;;;;;;5054777;28;20025;-67
2021/05/04 06:19:11;;;;;;;36.42;7.13;;;;;;;;;;5062188;28;20062;-68
2021/05/04 06:21:37;;;;;;;44.83;6.85;;;;;;;;;;5056922;28;20135;-64
2021/05/04 06:24:03;;;;;;;26.63;6.57;;;;;;;;;;5059439;28;20033;-75
2021/05/04 06:26:29;;;;;;;45.45;8.75;;;;;;;;;;5056625;28;20025;-70
2021/05/04 06:28:55;;;;;;;43.03;6.70;;;;;;;;;;5054088;28;20032;-76
2021/05/04 06:31:22;;;;;;;31.98;5.65;;;;;;;;;;5057375;28;20079;-73
2021/05/04 06:33:48;;;;;;;29.15;4.35;;;;;;;;;;5066244;28;20033;-67
2021/05/04 06:36:14;;;;;;;55.92;6.93;;;;;;;;;;5062046;28;20126;-71
2021/05/04 06:38:40;;;;;;;43.75;6.65;;;;;;;;;;5059752;28;20033;-75
2021/05/04 06:41:06;;;;;;;35.55;5.82;;;;;;;;;;5056311;28;20372;-66
2021/05/04 06:43:33;;;;;;;31.13;4.50;;;;;;;;;;5055223;28;20495;-71
2021/05/04 06:45:59;;;;;;;33.22;6.70;;;;;;;;;;5055044;28;20864;-70
2021/05/04 06:48:25;;;;;;;26.42;6.50;;;;;;;;;;5056993;28;20044;-66
2021/05/04 06:50:53;;;;;;;27.50;5.93;;;;;;;;;;5055359;28;20158;-70
2021/05/04 06:53:19;;;;;;;33.38;5.70;;;;;;;;;;5054455;28;20060;-71
2021/05/04 06:55:47;;;;;;;29.38;4.95;;;;;;;;;;5061052;28;20033;-71
2021/05/04 06:58:13;;;;;;;35.05;6.32;;;;;;;;;;5052615;28;20108;-77
2021/05/04 07:00:39;;;;;;;47.05;8.00;;;;;;;;;;5059112;28;20033;-74
2021/05/04 07:03:05;;;;;;;35.67;6.68;;;;;;;;;;5052919;28;20074;-70
2021/05/04 07:05:31;;;;;;;39.08;7.40;;;;;;;;;;5058364;28;20029;-69
2021/05/04 07:07:57;;;;;;;38.40;6.20;;;;;;;;;;5059506;28;20068;-68
2021/05/04 07:10:24;;;;;;;30.70;6.05;;;;;;;;;;5058803;28;20033;-69
2021/05/04 07:12:50;;;;;;;36.97;5.68;;;;;;;;;;5060285;28;20033;-69
2021/05/04 07:15:16;;;;;;;41.90;6.25;;;;;;;;;;5064910;28;20028;-68
2021/05/04 07:17:42;;;;;;;47.33;6.45;;;;;;;;;;5055904;28;20029;-67
2021/05/04 07:20:08;;;;;;;36.60;5.65;;;;;;;;;;5055074;28;20021;-67
2021/05/04 07:22:36;;;;;;;33.80;7.10;;;;;;;;;;5053178;28;20025;-67
2021/05/04 07:25:02;;;;;;;29.40;6.32;;;;;;;;;;5057188;28;20078;-72
2021/05/04 07:27:29;;;;;;;43.22;6.50;;;;;;;;;;5061325;28;20017;-66
2021/05/04 07:29:55;;;;;;;34.33;6.78;;;;;;;;;;5056988;28;20170;-70
2021/05/04 07:32:21;;;;;;;28.23;5.45;;;;;;;;;;5060898;28;20581;-67
2021/05/04 07:34:47;;;;;;;33.35;7.07;;;;;;;;;;5065526;28;20116;-67
2021/05/04 07:37:14;;;;;;;39.90;6.78;;;;;;;;;;5060084;28;20107;-70
2021/05/04 07:39:40;;;;;;;43.95;8.90;;;;;;;;;;5060165;28;20031;-68
2021/05/04 07:42:07;;;;;;;36.72;7.47;;;;;;;;;;5066797;28;20116;-73
2021/05/04 07:44:33;;;;;;;40.22;6.28;;;;;;;;;;5061736;28;20055;-80
2021/05/04 07:46:59;;;;;;;50.33;8.07;;;;;;;;;;5062557;28;20021;-76
2021/05/04 07:49:35;;;;;;;35.22;6.30;;;;;;;;;;5058373;28;20114;-71
2021/05/04 07:52:01;;;;;;;48.85;7.35;;;;;;;;;;5060058;28;20037;-65
2021/05/04 07:54:27;;;;;;;32.55;5.53;;;;;;;;;;5058486;28;20094;-69
2021/05/04 07:56:53;;;;;;;37.17;6.68;;;;;;;;;;5059406;28;20103;-70
2021/05/04 07:59:19;;;;;;;41.50;6.22;;;;;;;;;;5059958;28;20027;-66
2021/05/04 08:01:45;;;;;;;36.00;5.00;;;;;;;;;;5061003;28;20020;-69
2021/05/04 08:04:12;;;;;;;32.60;5.75;;;;;;;;;;5057981;28;20494;-69
2021/05/04 08:06:38;;;;;;;35.55;6.03;;;;;;;;;;5060003;28;20446;-66
2021/05/04 08:09:05;;;;;;;33.03;6.05;;;;;;;;;;5058771;28;20104;-73
2021/05/04 08:11:32;;;;;;;31.48;6.10;;;;;;;;;;5058776;28;20025;-68
2021/05/04 08:13:58;;;;;;;50.03;6.47;;;;;;;;;;5058464;28;20021;-72
2021/05/04 08:16:24;;;;;;;27.48;5.35;;;;;;;;;;5055495;28;20120;-68
2021/05/04 08:18:52;;;;;;;34.33;6.65;;;;;;;;;;5055217;28;20079;-74
2021/05/04 08:21:21;;;;;;;31.60;5.28;;;;;;;;;;5059559;28;20067;-74
2021/05/04 08:23:47;;;;;;;24.10;4.45;;;;;;;;;;5057659;28;20032;-70
2021/05/04 08:26:14;;;;;;;17.08;3.28;;;;;;;;;;5056787;28;20029;-70
2021/05/04 08:28:40;;;;;;;13.95;2.80;;;;;;;;;;5057598;28;20044;-65
2021/05/04 08:31:06;;;;;;;14.38;2.38;;;;;;;;;;5056306;28;20562;-68
2021/05/04 08:33:32;;;;;;;14.38;2.60;;;;;;;;;;5055155;28;20132;-70
2021/05/04 08:35:58;;;;;;;15.95;2.97;;;;;;;;;;5056259;28;20028;-71
2021/05/04 08:38:24;;;;;;;11.15;2.28;;;;;;;;;;5058405;28;20029;-71
2021/05/04 08:40:50;;;;;;;20.02;3.22;;;;;;;;;;5055787;28;20076;-71
2021/05/04 08:43:23;;;;;;;23.65;3.42;;;;;;;;;;5060939;28;20033;-70
2021/05/04 08:45:56;;;;;;;13.75;2.72;;;;;;;;;;5060426;28;20585;-69
2021/05/04 08:48:22;;;;;;;8.35;2.17;;;;;;;;;;5057259;28;20049;-69
2021/05/04 08:50:48;;;;;;;12.35;2.35;;;;;;;;;;5057634;28;20107;-68
2021/05/04 08:53:15;;;;;;;10.23;1.40;;;;;;;;;;5058961;28;20087;-73
2021/05/04 08:55:41;;;;;;;10.68;2.22;;;;;;;;;;5054724;28;20070;-72
2021/05/04 08:58:07;;;;;;;16.35;3.35;;;;;;;;;;5054661;28;20029;-72
2021/05/04 09:00:33;;;;;;;14.20;3.35;;;;;;;;;;5055116;28;20070;-75
2021/05/04 09:03:09;;;;;;;11.65;2.00;;;;;;;;;;5057651;28;20034;-70
2021/05/04 09:05:39;;;;;;;16.55;2.83;;;;;;;;;;5063592;28;20031;-72
2021/05/04 09:08:10;;;;;;;17.77;2.58;;;;;;;;;;5058002;28;20047;-72
2021/05/04 09:10:52;;;;;;;17.48;3.65;;;;;;;;;;5060813;28;20107;-71
2021/05/04 09:13:25;;;;;;;15.68;2.28;;;;;;;;;;5064457;28;20097;-75
2021/05/04 09:21:09;;;;;;;16.60;2.25;;;;;;;;;;5061006;28;20039;-69
2021/05/04 09:23:36;;;;;;;9.30;1.95;;;;;;;;;;5054970;28;20080;-67
2021/05/04 09:26:03;;;;;;;16.63;2.70;;;;;;;;;;5061686;28;20035;-76
2021/05/04 09:28:29;;;;;;;10.15;2.65;;;;;;;;;;5055784;28;20020;-79
2021/05/04 09:30:56;;;;;;;8.77;1.75;;;;;;;;;;5061415;28;20116;-77
2021/05/04 09:33:22;;;;;;;15.68;2.53;;;;;;;;;;5060814;28;20411;-79
2021/05/04 09:35:49;;;;;;;12.65;2.97;;;;;;;;;;5056001;28;20025;-69
2021/05/04 09:38:16;;;;;;;16.90;2.92;;;;;;;;;;5055561;28;20055;-75
2021/05/04 09:40:43;;;;;;;10.35;2.03;;;;;;;;;;5056597;28;20025;-72
2021/05/04 09:43:12;;;;;;;12.60;2.08;;;;;;;;;;5058436;28;20514;-73
2021/05/04 09:45:39;;;;;;;9.68;1.88;;;;;;;;;;5065673;28;20097;-71
2021/05/04 09:48:21;;;;;;;12.70;1.67;;;;;;;;;;5061968;28;20095;-68
2021/05/04 09:50:53;;;;;;;9.77;1.75;;;;;;;;;;5055377;28;20037;-68
2021/05/04 09:53:23;;;;;;;8.43;1.85;;;;;;;;;;5054183;28;20037;-72
2021/05/04 09:55:54;;;;;;;15.00;2.00;;;;;;;;;;5058671;28;20077;-69
2021/05/04 09:58:30;;;;;;;17.98;1.88;;;;;;;;;;5054189;28;20100;-71
2021/05/04 10:00:56;;;;;;;12.05;1.98;;;;;;;;;;5059459;28;20226;-67
2021/05/04 10:03:22;;;;;;;10.70;1.70;;;;;;;;;;5055826;28;20119;-67
2021/05/04 10:05:49;;;;;;;8.18;1.83;;;;;;;;;;5057186;28;20025;-69
2021/05/04 10:08:16;;;;;;;17.35;2.38;;;;;;;;;;5063017;28;20059;-68
2021/05/04 10:10:42;;;;;;;10.57;2.50;;;;;;;;;;5055365;28;20033;-69
2021/05/04 10:13:09;;;;;;;14.43;2.20;;;;;;;;;;5064612;28;20039;-70
2021/05/04 10:15:35;;;;;;;18.10;1.63;;;;;;;;;;5058266;28;20126;-70
2021/05/04 10:18:02;;;;;;;13.30;2.58;;;;;;;;;;5066608;28;20036;-66
2021/05/04 10:20:28;;;;;;;5.88;1.05;;;;;;;;;;5062342;28;20167;-68
2021/05/04 10:22:55;;;;;;;12.05;1.50;;;;;;;;;;5058507;28;20151;-70
2021/05/04 10:25:22;;;;;;;11.38;1.88;;;;;;;;;;5064292;28;20024;-68
2021/05/04 10:27:51;;;;;;;9.63;1.27;;;;;;;;;;5060838;28;20108;-69
2021/05/04 10:30:21;;;;;;;14.23;2.55;;;;;;;;;;5055572;28;20021;-75
2021/05/04 10:32:48;;;;;;;15.55;2.13;;;;;;;;;;5061650;28;20124;-68
2021/05/04 10:35:29;;;;;;;11.32;1.80;;;;;;;;;;5060174;28;20032;-67
2021/05/04 10:37:56;;;;;;;14.55;1.85;;;;;;;;;;5058641;28;20811;-74
2021/05/04 10:40:23;;;;;;;7.25;1.88;;;;;;;;;;5050859;28;20426;-71
2021/05/04 10:42:49;;;;;;;13.80;1.63;;;;;;;;;;5054330;28;20042;-71
2021/05/04 10:45:15;;;;;;;8.35;2.10;;;;;;;;;;5053834;28;20021;-72
2021/05/04 10:47:46;;;;;;;11.82;2.13;;;;;;;;;;5061454;28;20057;-69
2021/05/04 10:50:23;;;;;;;9.77;2.63;;;;;;;;;;5057589;28;20082;-73
2021/05/04 10:52:59;;;;;;;12.75;2.08;;;;;;;;;;5061268;28;20041;-72
2021/05/04 10:55:28;;;;;;;19.40;1.77;;;;;;;;;;5053238;28;20095;-68
2021/05/04 10:58:05;;;;;;;7.47;1.55;;;;;;;;;;5059259;28;20024;-68
2021/05/04 11:05:57;;;;;;;12.93;2.88;;;;;;;;;;5062350;28;20033;-68
2021/05/04 11:08:23;;;;;;;14.55;2.00;;;;;;;;;;5062877;28;20094;-67
2021/05/04 11:11:16;;;;;;;13.63;2.45;;;;;;;;;;5057652;28;20028;-67
2021/05/04 11:13:52;;;;;;;11.13;2.38;;;;;;;;;;5054466;28;20033;-68
2021/05/04 11:16:37;;;;;;;11.85;2.67;;;;;;;;;;5057210;28;20094;-66
2021/05/04 11:19:10;;;;;;;13.80;2.55;;;;;;;;;;5055728;28;20297;-64
2021/05/04 11:21:56;;;;;;;13.85;2.53;;;;;;;;;;5059647;28;20025;-68
2021/05/04 11:24:25;;;;;;;13.18;2.78;;;;;;;;;;5050536;28;20503;-68
2021/05/04 11:26:57;;;;;;;16.73;2.33;;;;;;;;;;5064070;28;20032;-64
2021/05/04 11:29:33;;;;;;;13.52;3.75;;;;;;;;;;5055512;28;20025;-65
2021/05/04 11:32:11;;;;;;;14.70;2.03;;;;;;;;;;5064264;28;20237;-70
2021/05/04 11:34:40;;;;;;;19.35;2.13;;;;;;;;;;5062330;28;20027;-71
2021/05/04 11:37:11;;;;;;;10.02;1.77;;;;;;;;;;5059863;28;20025;-68
2021/05/04 11:39:53;;;;;;;11.15;2.20;;;;;;;;;;5059082;28;20142;-69
2021/05/04 11:42:19;;;;;;;;;;;;;;;;;;5059800;28;20040;-68
2021/05/04 11:44:45;;;;;;;16.50;2.00;;;;;;;;;;5058821;28;20314;-71
2021/05/04 11:47:20;;;;;;;11.63;2.42;;;;;;;;;;5060884;28;20029;-70
2021/05/04 11:49:47;;;;;;;18.50;3.78;;;;;;;;;;5056232;28;20037;-70
2021/05/04 11:52:14;;;;;;;19.48;3.13;;;;;;;;;;5057417;28;20055;-68
2021/05/04 11:54:40;;;;;;;27.55;3.35;;;;;;;;;;5062663;28;20045;-66
2021/05/04 11:57:06;;;;;;;14.88;2.80;;;;;;;;;;5060575;28;20044;-68
2021/05/04 11:59:32;;;;;;;25.85;3.25;;;;;;;;;;5056429;28;20035;-70
2021/05/04 12:01:59;;;;;;;11.82;2.55;;;;;;;;;;5057624;28;20030;-69
2021/05/04 12:04:43;;;;;;;15.60;2.95;;;;;;;;;;5061365;28;20028;-72
2021/05/04 12:07:09;;;;;;;16.27;2.75;;;;;;;;;;5058137;28;20059;-72
2021/05/04 12:09:35;;;;;;;18.77;2.95;;;;;;;;;;5058357;28;20036;-74
2021/05/04 12:12:11;;;;;;;14.63;1.70;;;;;;;;;;5056266;28;20039;-66
2021/05/04 12:14:56;;;;;;;11.80;2.42;;;;;;;;;;5062628;28;20029;-68
2021/05/04 12:17:28;;;;;;;10.25;1.70;;;;;;;;;;5059275;28;20025;-66
2021/05/04 12:20:08;;;;;;;13.70;2.47;;;;;;;;;;5059647;28;20056;-68
2021/05/04 12:22:50;;;;;;;17.42;2.92;;;;;;;;;;5054622;28;20013;-69
2021/05/04 12:25:16;;;;;;;;;;;;;;;;;;5059192;28;20029;-73
2021/05/04 12:27:46;;;;;;;16.67;2.42;;;;;;;;;;5063105;28;19923;-71
2021/05/04 12:30:13;;;;;;;17.63;2.30;;;;;;;;;;5056411;28;20072;-69
2021/05/04 12:32:40;;;;;;;18.67;3.22;;;;;;;;;;5059288;28;20023;-70
2021/05/04 12:35:31;;;;;;;15.88;2.78;;;;;;;;;;5057745;28;20036;-67
2021/05/04 12:38:21;;;;;;;19.85;2.92;;;;;;;;;;5056732;28;20052;-67
2021/05/04 12:40:54;;;;;;;15.98;2.35;;;;;;;;;;5051935;28;20119;-70
2021/05/04 12:43:24;;;;;;;19.65;3.25;;;;;;;;;;5054597;28;20238;-69
2021/05/04 12:46:00;;;;;;;21.58;3.60;;;;;;;;;;5062185;28;20016;-73
2021/05/04 12:48:26;;;;;;;16.08;2.40;;;;;;;;;;5068828;28;20029;-71
2021/05/04 12:50:59;;;;;;;11.75;1.88;;;;;;;;;;5063960;28;20028;-73
2021/05/04 12:53:31;;;;;;;10.40;1.45;;;;;;;;;;5063559;28;20025;-70
2021/05/04 12:56:07;;;;;;;7.10;1.50;;;;;;;;;;5061493;28;20077;-67
2021/05/04 12:58:34;;;;;;;16.45;2.45;;;;;;;;;;5061821;28;20043;-76
2021/05/04 13:01:06;;;;;;;9.63;1.73;;;;;;;;;;5059865;28;20032;-72
2021/05/04 13:03:45;;;;;;;14.05;2.30;;;;;;;;;;5060273;28;20021;-73
2021/05/04 13:06:12;;;;;;;11.20;3.08;;;;;;;;;;5063352;28;20024;-73
2021/05/04 13:08:48;;;;;;;17.83;2.75;;;;;;;;;;5064869;28;20138;-69
2021/05/04 13:11:17;;;;;;;10.95;2.13;;;;;;;;;;5063995;28;20024;-70
2021/05/04 13:17:12;;;;;;;12.38;1.70;;;;;;;;;;5042869;28;20044;-64
2021/05/04 13:20:46;;;;;;;8.80;1.92;;;;;;;;;;5056455;28;20302;-66
2021/05/04 13:31:39;;;;;;;6.93;1.92;;;;;;;;;;5051740;28;20036;-68
2021/05/04 13:34:08;;;;;;;13.90;3.03;;;;;;;;;;5069101;28;20012;-70
2021/05/04 13:36:34;;;;;;;12.75;2.33;;;;;;;;;;5064718;28;20398;-68
2021/05/04 13:39:26;;;;;;;10.13;1.88;;;;;;;;;;5068288;28;20035;-68
2021/05/04 13:47:29;;;;;;;10.25;1.80;;;;;;;;;;5053011;28;20549;-73
2021/05/04 13:47:33;;;;;;;19.20;2.58;;;;;;;;;;5060088;28;20029;-73
2021/05/04 13:50:00;;;;;;;15.60;1.95;;;;;;;;;;5048478;28;20056;-69
2021/05/04 13:52:26;;;;;;;14.88;2.10;;;;;;;;;;5052050;28;20021;-72
2021/05/04 13:54:52;;;;;;;11.27;2.45;;;;;;;;;;5055787;28;20051;-71
2021/05/04 13:57:19;;;;;;;12.00;2.13;;;;;;;;;;5065410;28;20064;-74
2021/05/04 13:59:48;;;;;;;15.20;2.40;;;;;;;;;;5062265;28;20444;-65
2021/05/04 14:02:41;;;;;;;8.65;1.88;;;;;;;;;;5051345;28;20455;-70
2021/05/04 14:05:42;;;;;;;17.75;2.75;;;;;;;;;;5054607;28;20645;-69
2021/05/04 14:17:42;;;;;;;12.98;2.05;;;;;;;;;;5064427;28;20048;-68
2021/05/04 14:27:05;;;;;;;14.25;2.35;;;;;;;;;;5064672;28;20040;-72
2021/05/04 14:29:31;;;;;;;13.80;1.92;;;;;;;;;;5061661;28;20027;-72
2021/05/04 14:31:57;;;;;;;22.20;2.00;;;;;;;;;;5065711;28;20032;-73
2021/05/04 14:34:25;;;;;;;9.93;2.22;;;;;;;;;;5052621;28;20124;-67
2021/05/04 14:40:08;;;;;;;12.63;1.52;;;;;;;;;;4991353;28;20038;-65
2021/05/04 14:43:11;;;;;;;14.93;2.70;;;;;;;;;;5052393;28;20099;-71
2021/05/04 14:59:12;;;;;;;7.53;1.73;;;;;;;;;;5053037;28;20946;-72
2021/05/04 15:01:46;;;;;;;14.10;2.20;;;;;;;;;;5052252;28;20025;-69
2021/05/04 15:04:12;;;;;;;11.98;1.23;;;;;;;;;;5056201;28;20095;-70
2021/05/04 15:06:39;;;;;;;11.75;1.70;;;;;;;;;;5066887;28;20028;-67
2021/05/04 15:09:08;;;;;;;13.45;1.50;;;;;;;;;;5060230;28;20025;-69
2021/05/04 15:11:35;;;;;;;16.42;2.17;;;;;;;;;;5059698;28;20025;-67
2021/05/04 15:14:01;;;;;;;11.35;1.27;;;;;;;;;;5058423;28;20037;-66
2021/05/04 15:24:07;;;;;;;4.35;0.98;;;;;;;;;;5065073;28;20036;-67
2021/05/04 15:26:33;;;;;;;6.85;1.50;;;;;;;;;;5063039;28;20397;-68
2021/05/04 15:29:00;;;;;;;8.27;1.25;;;;;;;;;;5060612;28;20025;-71
2021/05/04 15:31:30;;;;;;;11.43;1.65;;;;;;;;;;5063513;28;20031;-68
2021/05/04 15:33:56;;;;;;;8.50;1.38;;;;;;;;;;5065882;28;20108;-70
2021/05/04 15:36:23;;;;;;;8.32;1.73;;;;;;;;;;5068635;28;20036;-70
2021/05/04 15:38:50;;;;;;;12.90;1.70;;;;;;;;;;5061950;28;20025;-69
2021/05/04 15:41:16;;;;;;;8.85;1.40;;;;;;;;;;5063227;28;20112;-66
2021/05/04 15:43:47;;;;;;;8.18;1.85;;;;;;;;;;5052162;28;20021;-70
2021/05/04 16:07:18;;;;;;;11.02;1.70;;;;;;;;;;5067035;28;20063;-69